createdAt,value
2022-08-06T00:00:02.891Z,55.32
2022-08-06T00:02:25.940Z,55.25
2022-08-06T00:04:55.074Z,55.55
2022-08-06T00:07:22.351Z,55.33
2022-08-06T00:09:57.169Z,55.84
2022-08-06T00:12:29.804Z,55.44
2022-08-06T00:14:56.126Z,55.27
2022-08-06T00:17:23.587Z,55.19
2022-08-06T00:20:00.387Z,55.57
2022-08-06T00:22:28.843Z,55.01
2022-08-06T00:24:55.932Z,54.85
2022-08-06T00:27:28.856Z,54.50
2022-08-06T00:29:57.458Z,54.32
2022-08-06T00:32:32.700Z,53.75
2022-08-06T00:34:59.721Z,54.11
2022-08-06T00:37:28.762Z,53.27
2022-08-06T00:40:15.763Z,53.65
2022-08-06T00:42:44.765Z,53.75
2022-08-06T00:45:23.528Z,53.99
2022-08-06T00:48:01.942Z,53.72
2022-08-06T00:50:30.296Z,53.88
2022-08-06T00:52:56.899Z,53.56
2022-08-06T00:55:32.031Z,54.06
2022-08-06T00:58:02.238Z,52.78
2022-08-06T01:00:30.216Z,53.38
2022-08-06T01:02:57.413Z,53.26
2022-08-06T01:06:04.245Z,53.60
2022-08-06T01:08:09.367Z,53.86
2022-08-06T01:10:42.163Z,53.75
2022-08-06T01:13:25.673Z,53.78
2022-08-06T01:16:08.466Z,52.91
2022-08-06T01:18:35.271Z,53.70
2022-08-06T01:21:57.307Z,53.57
2022-08-06T01:23:51.216Z,53.87
2022-08-06T01:26:18.700Z,53.17
2022-08-06T01:28:46.407Z,53.31
2022-08-06T01:31:17.974Z,53.37
2022-08-06T01:33:46.745Z,54.08
2022-08-06T01:36:13.876Z,54.26
2022-08-06T01:38:43.830Z,53.89
2022-08-06T01:41:16.815Z,53.71
2022-08-06T01:44:05.396Z,53.61
2022-08-06T01:46:31.294Z,53.94
2022-08-06T01:49:09.025Z,54.39
2022-08-06T01:52:29.433Z,53.87
2022-08-06T01:54:32.434Z,54.30
2022-08-06T01:56:58.945Z,54.00
2022-08-06T01:59:24.922Z,53.81
2022-08-06T02:01:53.277Z,53.52
2022-08-06T02:04:21.751Z,53.59
2022-08-06T02:06:49.619Z,54.55
2022-08-06T02:09:22.795Z,53.21
2022-08-06T02:12:03.454Z,53.64
2022-08-06T02:14:33.422Z,53.70
2022-08-06T02:17:00.557Z,53.65
2022-08-06T02:19:47.927Z,53.93
2022-08-06T02:22:27.423Z,53.65
2022-08-06T02:24:57.090Z,53.05
2022-08-06T02:27:24.139Z,52.66
2022-08-06T02:30:09.823Z,51.82
2022-08-06T02:32:35.813Z,51.22
2022-08-06T02:35:09.173Z,51.01
2022-08-06T02:38:01.717Z,50.70
2022-08-06T02:40:21.474Z,51.32
2022-08-06T02:42:48.376Z,50.65
2022-08-06T02:45:14.465Z,51.36
2022-08-06T02:47:56.085Z,50.58
2022-08-06T02:50:27.158Z,50.25
2022-08-06T02:52:57.749Z,50.72
2022-08-06T02:55:24.622Z,48.82
2022-08-06T02:58:00.166Z,49.24
2022-08-06T03:00:29.562Z,48.35
2022-08-06T03:02:55.788Z,47.66
2022-08-06T03:05:55.095Z,48.94
2022-08-06T03:08:08.170Z,48.77
2022-08-06T03:10:36.722Z,47.74
2022-08-06T03:13:03.632Z,47.95
2022-08-06T03:15:57.906Z,47.24
2022-08-06T03:18:16.110Z,47.69
2022-08-06T03:20:42.118Z,47.61
2022-08-06T03:23:08.075Z,46.78
2022-08-06T03:25:34.035Z,46.76
2022-08-06T03:28:08.250Z,46.65
2022-08-06T03:30:34.409Z,46.59
2022-08-06T03:33:07.085Z,46.25
2022-08-06T03:35:50.247Z,46.91
2022-08-06T03:38:17.185Z,46.53
2022-08-06T03:40:43.155Z,47.21
2022-08-06T03:43:26.836Z,46.40
2022-08-06T03:45:56.129Z,46.82
2022-08-06T03:48:36.008Z,46.65
2022-08-06T03:51:07.940Z,46.47
2022-08-06T03:53:38.747Z,47.29
2022-08-06T03:56:14.482Z,46.91
2022-08-06T03:58:40.797Z,46.01
2022-08-06T04:01:07.661Z,46.41
2022-08-06T04:03:39.658Z,46.75
2022-08-06T04:06:06.194Z,46.17
2022-08-06T04:08:41.893Z,46.23
2022-08-06T04:12:13.283Z,46.43
2022-08-06T04:14:06.128Z,47.27
2022-08-06T04:16:35.789Z,46.26
2022-08-06T04:19:02.842Z,46.85
2022-08-06T04:23:08.562Z,46.51
2022-08-06T04:24:15.597Z,46.07
2022-08-06T04:26:41.954Z,46.64
2022-08-06T04:29:09.129Z,46.20
2022-08-06T04:32:11.746Z,46.92
2022-08-06T04:34:27.109Z,45.90
2022-08-06T04:36:55.568Z,45.52
2022-08-06T04:39:24.846Z,46.91
2022-08-06T04:41:56.853Z,45.69
2022-08-06T04:44:27.778Z,45.17
2022-08-06T04:46:54.458Z,45.35
2022-08-06T04:49:20.559Z,45.63
2022-08-06T04:52:34.512Z,45.24
2022-08-06T04:54:33.134Z,44.87
2022-08-06T04:57:21.928Z,44.19
2022-08-06T04:59:50.421Z,44.11
2022-08-06T05:02:17.215Z,44.35
2022-08-06T05:04:44.658Z,44.95
2022-08-06T05:07:13.553Z,44.39
2022-08-06T05:09:43.419Z,43.95
2022-08-06T05:12:10.193Z,43.79
2022-08-06T05:14:36.121Z,43.52
2022-08-06T05:17:02.111Z,44.02
2022-08-06T05:19:28.874Z,43.21
2022-08-06T05:22:10.233Z,43.96
2022-08-06T05:24:39.440Z,44.41
2022-08-06T05:27:24.509Z,44.55
2022-08-06T05:30:06.237Z,44.69
2022-08-06T05:32:33.584Z,44.86
2022-08-06T05:35:00.410Z,45.12
2022-08-06T05:38:00.758Z,45.38
2022-08-06T05:40:20.440Z,44.89
2022-08-06T05:43:00.625Z,44.84
2022-08-06T05:45:26.592Z,43.73
2022-08-06T05:47:56.518Z,43.48
2022-08-06T05:50:25.265Z,43.63
2022-08-06T05:52:51.576Z,43.34
2022-08-06T05:55:19.034Z,42.41
2022-08-06T05:57:53.895Z,42.75
2022-08-06T06:00:41.738Z,42.98
2022-08-06T06:03:08.536Z,42.50
2022-08-06T06:06:10.640Z,41.75
2022-08-06T06:08:39.945Z,41.99
2022-08-06T06:11:22.023Z,41.99
2022-08-06T06:14:07.805Z,41.46
2022-08-06T06:16:35.748Z,41.22
2022-08-06T06:19:03.282Z,40.39
2022-08-06T06:21:36.652Z,41.55
2022-08-06T06:24:04.471Z,42.09
2022-08-06T06:26:33.842Z,41.31
2022-08-06T06:29:01.316Z,42.59
2022-08-06T06:32:04.387Z,42.65
2022-08-06T06:34:23.441Z,43.36
2022-08-06T06:36:49.487Z,43.68
2022-08-06T06:39:15.472Z,43.46
2022-08-06T06:41:44.613Z,42.83
2022-08-06T06:44:17.650Z,42.63
2022-08-06T06:46:49.498Z,43.33
2022-08-06T06:50:00.489Z,42.00
2022-08-06T06:52:08.355Z,41.02
2022-08-06T06:54:37.935Z,41.42
2022-08-06T06:57:04.226Z,40.72
2022-08-06T07:00:00.863Z,40.18
2022-08-06T07:02:20.814Z,40.08
2022-08-06T07:04:50.320Z,40.48
2022-08-06T07:07:23.380Z,38.87
2022-08-06T07:09:53.316Z,39.76
2022-08-06T07:12:25.624Z,41.09
2022-08-06T07:15:00.812Z,40.66
2022-08-06T07:17:45.488Z,39.98
2022-08-06T07:20:13.150Z,39.91
2022-08-06T07:24:07.946Z,39.49
2022-08-06T07:25:29.237Z,39.29
2022-08-06T07:27:56.715Z,39.62
2022-08-06T07:30:26.119Z,39.21
2022-08-06T07:32:55.477Z,38.21
2022-08-06T07:35:21.460Z,38.55
2022-08-06T07:37:47.596Z,40.23
2022-08-06T07:40:13.538Z,39.78
2022-08-06T07:42:41.660Z,39.51
2022-08-06T07:45:11.143Z,39.72
2022-08-06T07:47:54.040Z,39.93
2022-08-06T07:50:23.455Z,40.76
2022-08-06T07:52:49.970Z,40.44
2022-08-06T07:55:15.969Z,41.27
2022-08-06T07:57:55.230Z,40.71
2022-08-06T08:00:24.415Z,39.46
2022-08-06T08:02:53.602Z,39.68
2022-08-06T08:05:19.594Z,40.61
2022-08-06T08:07:57.177Z,39.81
2022-08-06T08:10:28.945Z,40.55
2022-08-06T08:12:55.615Z,40.35
2022-08-06T08:15:23.132Z,40.20
2022-08-06T08:17:57.288Z,41.14
2022-08-06T08:20:24.593Z,40.13
2022-08-06T08:22:53.719Z,40.76
2022-08-06T08:25:21.873Z,40.46
2022-08-06T08:28:12.158Z,40.22
2022-08-06T08:30:38.968Z,40.50
2022-08-06T08:33:05.214Z,40.65
2022-08-06T08:35:38.044Z,40.34
2022-08-06T08:38:04.076Z,40.68
2022-08-06T08:40:30.020Z,40.78
2022-08-06T08:42:56.025Z,40.16
2022-08-06T08:45:21.966Z,41.19
2022-08-06T08:47:59.851Z,40.34
2022-08-06T08:50:29.508Z,41.33
2022-08-06T08:52:55.465Z,42.04
2022-08-06T08:57:10.174Z,42.71
2022-08-06T08:58:37.994Z,43.58
2022-08-06T09:00:54.782Z,43.87
2022-08-06T09:03:20.869Z,43.32
2022-08-06T09:05:47.408Z,43.89
2022-08-06T09:08:39.715Z,43.90
2022-08-06T09:10:59.692Z,43.95
2022-08-06T09:13:50.758Z,44.77
2022-08-06T09:16:19.345Z,45.06
2022-08-06T09:18:46.133Z,45.15
2022-08-06T09:21:12.082Z,45.08
2022-08-06T09:23:49.372Z,45.64
2022-08-06T09:26:54.300Z,45.90
2022-08-06T09:29:23.690Z,45.58
2022-08-06T09:31:55.989Z,46.09
2022-08-06T09:34:38.653Z,46.00
2022-08-06T09:37:05.379Z,45.90
2022-08-06T09:39:31.661Z,45.90
2022-08-06T09:42:12.719Z,45.75
2022-08-06T09:44:41.869Z,45.80
2022-08-06T09:47:08.152Z,46.25
2022-08-06T09:49:47.381Z,46.77
2022-08-06T09:52:23.544Z,47.68
2022-08-06T09:54:53.150Z,50.09
2022-08-06T09:57:22.883Z,51.01
2022-08-06T09:59:50.665Z,52.40
2022-08-06T10:02:16.747Z,53.23
2022-08-06T10:04:44.639Z,54.58
2022-08-06T10:07:10.764Z,55.42
2022-08-06T10:09:41.595Z,55.19
2022-08-06T10:12:11.546Z,56.11
2022-08-06T10:14:39.361Z,56.79
2022-08-06T10:17:08.196Z,56.62
2022-08-06T10:19:36.106Z,57.56
2022-08-06T10:22:03.052Z,56.61
2022-08-06T10:24:41.796Z,56.33
2022-08-06T10:27:15.126Z,57.88
2022-08-06T10:29:41.314Z,57.51
2022-08-06T10:32:11.689Z,57.66
2022-08-06T10:34:38.430Z,58.47
2022-08-06T10:37:10.970Z,57.83
2022-08-06T10:40:07.557Z,59.44
2022-08-06T10:42:37.141Z,59.01
2022-08-06T10:45:12.462Z,58.28
2022-08-06T10:48:56.767Z,58.65
2022-08-06T10:50:38.386Z,58.32
2022-08-06T10:53:11.394Z,59.12
2022-08-06T10:55:57.330Z,57.67
2022-08-06T10:58:23.292Z,57.90
2022-08-06T11:00:56.026Z,57.91
2022-08-06T11:03:22.611Z,58.20
2022-08-06T11:05:54.119Z,57.29
2022-08-06T11:08:40.433Z,57.62
2022-08-06T11:11:06.608Z,56.87
2022-08-06T11:13:52.662Z,56.26
2022-08-06T11:16:19.854Z,57.82
2022-08-06T11:18:53.562Z,57.64
2022-08-06T11:21:21.203Z,57.61
2022-08-06T11:23:58.407Z,57.73
2022-08-06T11:26:27.268Z,57.39
2022-08-06T11:28:53.211Z,57.46
2022-08-06T11:31:19.214Z,57.90
2022-08-06T11:33:45.964Z,58.14
2022-08-06T11:36:12.044Z,58.08
2022-08-06T11:38:38.774Z,57.53
2022-08-06T11:41:44.760Z,57.03
2022-08-06T11:44:04.080Z,57.13
2022-08-06T11:46:36.030Z,57.24
2022-08-06T11:49:06.128Z,56.67
2022-08-06T11:51:32.225Z,57.19
2022-08-06T11:54:08.240Z,57.28
2022-08-06T11:56:35.399Z,56.99
2022-08-06T11:59:01.339Z,57.36
2022-08-06T12:01:33.771Z,56.97
2022-08-06T12:04:01.120Z,56.47
2022-08-06T12:06:28.911Z,56.16
2022-08-06T12:08:55.696Z,56.16
2022-08-06T12:11:23.737Z,56.66
2022-08-06T12:13:57.648Z,56.08
2022-08-06T12:16:24.027Z,55.94
2022-08-06T12:18:52.787Z,55.49
2022-08-06T12:21:18.750Z,56.14
2022-08-06T12:23:56.165Z,55.83
2022-08-06T12:26:28.447Z,56.13
2022-08-06T12:28:59.628Z,56.78
2022-08-06T12:31:35.923Z,55.07
2022-08-06T12:34:05.184Z,55.22
2022-08-06T12:36:35.046Z,54.55
2022-08-06T12:39:01.548Z,54.10
2022-08-06T12:41:45.595Z,53.47
2022-08-06T12:44:13.136Z,54.07
2022-08-06T12:46:40.781Z,53.35
2022-08-06T12:49:06.902Z,52.92
2022-08-06T12:51:33.167Z,53.35
2022-08-06T12:53:59.702Z,52.88
2022-08-06T12:56:32.017Z,52.79
2022-08-06T12:58:58.842Z,52.61
2022-08-06T13:02:08.309Z,51.74
2022-08-06T13:04:16.828Z,52.15
2022-08-06T13:06:43.290Z,52.32
2022-08-06T13:09:10.060Z,52.10
2022-08-06T13:11:36.994Z,52.07
2022-08-06T13:14:17.654Z,51.58
2022-08-06T13:16:53.984Z,50.69
2022-08-06T13:19:21.240Z,52.42
2022-08-06T13:21:58.443Z,52.90
2022-08-06T13:24:24.437Z,53.17
2022-08-06T13:26:57.160Z,52.60
2022-08-06T13:30:31.380Z,52.59
2022-08-06T13:32:19.909Z,54.35
2022-08-06T13:34:55.018Z,54.61
2022-08-06T13:37:20.963Z,56.52
2022-08-06T13:40:05.053Z,56.86
2022-08-06T13:42:35.303Z,57.22
2022-08-06T13:45:01.599Z,57.43
2022-08-06T13:47:39.044Z,57.41
2022-08-06T13:50:13.591Z,57.85
2022-08-06T13:52:45.541Z,57.68
2022-08-06T13:55:26.808Z,56.88
2022-08-06T13:58:12.755Z,57.98
2022-08-06T14:00:41.132Z,57.47
2022-08-06T14:03:07.098Z,56.37
2022-08-06T14:05:39.788Z,54.88
2022-08-06T14:08:14.971Z,53.94
2022-08-06T14:10:52.855Z,54.80
2022-08-06T14:13:20.661Z,54.57
2022-08-06T14:15:46.847Z,54.29
2022-08-06T14:18:13.723Z,54.82
2022-08-06T14:20:42.100Z,54.37
2022-08-06T14:23:08.241Z,54.56
2022-08-06T14:25:52.639Z,55.13
2022-08-06T14:28:20.267Z,53.69
2022-08-06T14:30:46.755Z,53.24
2022-08-06T14:33:19.319Z,53.55
2022-08-06T14:35:52.686Z,53.73
2022-08-06T14:38:18.800Z,53.01
2022-08-06T14:41:01.206Z,53.18
2022-08-06T14:52:19.444Z,53.82
2022-08-06T14:54:56.193Z,53.05
2022-08-06T14:58:03.137Z,53.34
2022-08-06T15:00:21.656Z,52.71
2022-08-06T15:03:04.557Z,52.21
2022-08-06T15:05:41.738Z,52.74
2022-08-06T15:08:20.132Z,53.01
2022-08-06T15:10:46.091Z,53.02
2022-08-06T15:13:12.128Z,52.67
2022-08-06T15:15:47.014Z,52.60
2022-08-06T15:18:40.128Z,52.53
2022-08-06T15:20:59.674Z,52.97
2022-08-06T15:23:31.137Z,51.76
2022-08-06T15:26:46.954Z,51.43
2022-08-06T15:28:57.497Z,51.17
2022-08-06T15:31:25.470Z,51.60
2022-08-06T15:33:56.314Z,50.19
2022-08-06T15:36:22.305Z,49.92
2022-08-06T15:38:56.040Z,49.23
2022-08-06T15:41:23.074Z,48.80
2022-08-06T15:43:51.035Z,48.34
2022-08-06T15:46:28.625Z,48.43
2022-08-06T15:48:55.875Z,48.75
2022-08-06T15:51:30.436Z,48.76
2022-08-06T15:53:58.129Z,49.14
2022-08-06T15:56:39.064Z,48.68
2022-08-06T15:59:12.157Z,48.98
2022-08-06T16:01:52.771Z,48.73
2022-08-06T16:04:28.411Z,48.09
2022-08-06T16:06:55.236Z,48.06
2022-08-06T16:09:28.045Z,47.17
2022-08-06T16:11:57.166Z,47.28
2022-08-06T16:14:33.373Z,48.24
2022-08-06T16:17:02.660Z,50.05
2022-08-06T16:19:29.190Z,50.65
2022-08-06T16:22:00.014Z,51.02
2022-08-06T16:24:26.557Z,50.53
2022-08-06T16:26:57.578Z,50.36
2022-08-06T16:29:24.768Z,51.12
2022-08-06T16:31:54.003Z,52.46
2022-08-06T16:34:25.502Z,51.98
2022-08-06T16:36:56.442Z,52.39
2022-08-06T16:39:35.741Z,52.52
2022-08-06T16:42:03.182Z,52.92
2022-08-06T16:44:35.295Z,52.15
2022-08-06T16:47:05.119Z,52.68
2022-08-06T16:50:17.252Z,53.25
2022-08-06T16:52:44.306Z,53.58
2022-08-06T16:55:08.213Z,53.48
2022-08-06T16:57:37.299Z,53.17
2022-08-06T17:00:04.837Z,53.78
2022-08-06T17:02:30.840Z,53.75
2022-08-06T17:04:59.577Z,53.15
2022-08-06T17:10:25.070Z,53.24
2022-08-06T17:12:57.952Z,53.41
2022-08-06T17:15:36.371Z,53.33
2022-08-06T17:18:03.726Z,53.47
2022-08-06T17:20:29.971Z,53.76
2022-08-06T17:22:57.028Z,53.61
2022-08-06T17:25:50.886Z,53.43
2022-08-06T17:28:14.230Z,53.22
2022-08-06T17:30:40.261Z,53.62
2022-08-06T17:33:08.253Z,53.53
2022-08-06T17:36:29.928Z,54.25
2022-08-06T17:38:20.901Z,53.33
2022-08-06T17:40:50.032Z,53.01
2022-08-06T17:43:23.080Z,53.03
2022-08-06T17:46:25.268Z,52.51
2022-08-06T17:48:48.477Z,52.52
2022-08-06T17:51:17.234Z,52.77
2022-08-06T17:53:53.149Z,52.54
2022-08-06T17:56:30.247Z,51.64
2022-08-06T17:59:11.191Z,52.08
2022-08-06T18:01:45.735Z,51.71
2022-08-06T18:04:21.952Z,52.99
2022-08-06T18:06:49.025Z,52.87
2022-08-06T18:10:08.899Z,52.70
2022-08-06T18:12:00.908Z,52.32
2022-08-06T18:14:32.426Z,52.49
2022-08-06T18:16:59.530Z,52.82
2022-08-06T18:19:34.357Z,52.78
2022-08-06T18:22:12.222Z,53.17
2022-08-06T18:24:50.646Z,53.65
2022-08-06T18:27:53.600Z,53.25
2022-08-06T18:30:03.853Z,53.38
2022-08-06T18:32:29.834Z,52.44
2022-08-06T18:34:55.772Z,53.18
2022-08-06T18:37:24.883Z,52.88
2022-08-06T18:40:17.511Z,52.87
2022-08-06T18:42:42.417Z,53.14
2022-08-06T18:45:14.537Z,53.05
2022-08-06T18:47:41.328Z,52.61
2022-08-06T18:50:07.638Z,52.67
2022-08-06T18:52:35.142Z,53.50
2022-08-06T18:55:03.332Z,52.95
2022-08-06T18:57:37.954Z,54.38
2022-08-06T19:00:18.336Z,54.54
2022-08-06T19:02:44.664Z,53.52
2022-08-06T19:05:13.241Z,53.97
2022-08-06T19:07:40.530Z,53.84
2022-08-06T19:10:15.983Z,54.26
2022-08-06T19:12:44.755Z,54.30
2022-08-06T19:15:10.693Z,53.76
2022-08-06T19:18:09.880Z,54.76
2022-08-06T19:20:23.793Z,54.64
2022-08-06T19:22:53.344Z,54.34
2022-08-06T19:25:20.167Z,54.92
2022-08-06T19:28:30.856Z,54.95
2022-08-06T19:30:41.690Z,55.41
2022-08-06T19:33:13.926Z,55.08
2022-08-06T19:36:07.430Z,55.42
2022-08-06T21:30:10.395Z,52.25
2022-08-06T21:32:40.519Z,53.22
2022-08-06T21:35:06.842Z,51.78
2022-08-06T21:37:57.628Z,51.36
2022-08-06T21:40:29.090Z,50.78
2022-08-06T21:42:59.836Z,50.27
2022-08-06T21:45:26.628Z,50.73
2022-08-06T21:48:13.625Z,50.56
2022-08-06T21:50:43.102Z,51.01
2022-08-06T21:53:49.503Z,50.85
2022-08-06T21:56:36.921Z,50.45
2022-08-06T21:58:46.332Z,51.21
2022-08-06T22:01:14.450Z,50.49
2022-08-06T22:04:37.070Z,50.71
2022-08-06T22:06:38.028Z,49.97
2022-08-06T22:09:05.091Z,49.83
2022-08-06T22:12:40.736Z,50.23
2022-08-06T22:14:17.557Z,49.55
2022-08-06T22:16:54.984Z,49.65
2022-08-06T22:19:21.047Z,49.62
2022-08-06T22:21:59.586Z,49.49
2022-08-06T22:24:27.019Z,49.07
2022-08-06T22:26:56.374Z,48.79
2022-08-06T22:29:23.114Z,49.51
2022-08-06T22:31:56.950Z,49.11
2022-08-06T22:34:25.991Z,49.09
2022-08-06T22:37:03.888Z,50.41
2022-08-06T22:39:29.990Z,50.15
2022-08-06T22:42:07.099Z,52.28
2022-08-06T22:44:57.272Z,50.69
2022-08-06T22:47:19.677Z,51.56
2022-08-06T22:50:00.774Z,51.61
2022-08-06T22:52:51.381Z,51.78
2022-08-06T22:55:18.266Z,51.79
2022-08-06T22:59:01.703Z,51.40
2022-08-06T23:00:30.617Z,50.82
2022-08-06T23:02:56.730Z,50.21
2022-08-06T23:05:23.329Z,50.17
2022-08-06T23:07:54.494Z,50.52
2022-08-06T23:10:20.676Z,50.65
2022-08-06T23:12:46.627Z,51.34
2022-08-06T23:15:30.526Z,51.73
2022-08-06T23:18:00.340Z,53.21
2022-08-06T23:20:34.755Z,53.36
2022-08-06T23:23:01.599Z,53.31
2022-08-06T23:26:00.856Z,54.16
2022-08-06T23:28:13.795Z,53.24
2022-08-06T23:30:41.911Z,54.09
2022-08-06T23:33:07.907Z,54.75
2022-08-06T23:35:35.420Z,54.45
2022-08-06T23:38:32.436Z,54.26
2022-08-06T23:40:50.056Z,55.19
2022-08-06T23:43:17.393Z,56.38
2022-08-06T23:45:47.372Z,56.68
2022-08-06T23:48:14.210Z,56.68
2022-08-06T23:50:52.545Z,57.39
2022-08-06T23:54:06.107Z,58.24
2022-08-06T23:56:05.994Z,58.12
2022-08-06T23:58:31.980Z,58.26
